DLH5DK EDDF-EDXW
Flight info
| Callsign | DLH5DK |
|---|---|
| Flight time | 0h 56m |
| Altitude | 37000 |
| Route | MARUN6E MARUN Y150 TOLGI DCT ELSOB Y348 OMWEG DCT BADOS DCT OLDIP |
| Aircraft | A319/M-SDE2E3FGIJ1LORWXYZ/HB1 |
Departure
| Time | 2026-05-08 11:03 |
|---|---|
| Airport | Frankfurt Main Airport (EDDF) |
Arrival
| Time | 2026-05-08 12:00 |
|---|---|
| Airport | Westerland Sylt Airport (EDXW) |
| Time | Latitude | Longitude | Altitude | Speed | Heading |
|---|---|---|---|---|---|
| 2026-05-08 10:35 | 50.04541 | 8.56224 | 365 ft | 0 kts | 40° |
| 2026-05-08 10:51 | 50.04540 | 8.56223 | 356 ft | 1 kts | 40° |
| 2026-05-08 10:51 | 50.04528 | 8.56208 | 363 ft | 3 kts | 24° |
| 2026-05-08 10:51 | 50.04511 | 8.56199 | 358 ft | 2 kts | 10° |
| 2026-05-08 10:52 | 50.04496 | 8.56197 | 356 ft | 3 kts | 337° |
| 2026-05-08 10:52 | 50.04484 | 8.56213 | 362 ft | 3 kts | 287° |
| 2026-05-08 10:52 | 50.04482 | 8.56239 | 358 ft | 2 kts | 252° |
| 2026-05-08 10:52 | 50.04486 | 8.56256 | 361 ft | 3 kts | 250° |
| 2026-05-08 10:53 | 50.04493 | 8.56285 | 359 ft | 3 kts | 250° |
| 2026-05-08 10:53 | 50.04500 | 8.56315 | 360 ft | 3 kts | 250° |
| 2026-05-08 10:53 | 50.04507 | 8.56344 | 362 ft | 3 kts | 250° |
| 2026-05-08 10:53 | 50.04513 | 8.56371 | 361 ft | 2 kts | 250° |
| 2026-05-08 10:54 | 50.04514 | 8.56376 | 363 ft | 0 kts | 250° |
| 2026-05-08 10:55 | 50.04513 | 8.56371 | 361 ft | 2 kts | 250° |
| 2026-05-08 10:56 | 50.04502 | 8.56325 | 358 ft | 7 kts | 250° |
| 2026-05-08 10:56 | 50.04479 | 8.56228 | 362 ft | 12 kts | 250° |
| 2026-05-08 10:56 | 50.04445 | 8.56084 | 356 ft | 16 kts | 249° |
| 2026-05-08 10:56 | 50.04376 | 8.55925 | 360 ft | 20 kts | 192° |
| 2026-05-08 10:57 | 50.04240 | 8.55938 | 358 ft | 21 kts | 213° |
| 2026-05-08 10:57 | 50.04102 | 8.55966 | 353 ft | 21 kts | 162° |
| 2026-05-08 10:57 | 50.03963 | 8.55592 | 354 ft | 22 kts | 250° |
| 2026-05-08 10:58 | 50.03910 | 8.55369 | 349 ft | 22 kts | 250° |
| 2026-05-08 10:58 | 50.03856 | 8.55144 | 351 ft | 22 kts | 250° |
| 2026-05-08 10:58 | 50.03801 | 8.54913 | 353 ft | 23 kts | 249° |
| 2026-05-08 10:58 | 50.03752 | 8.54736 | 354 ft | 13 kts | 228° |
| 2026-05-08 10:59 | 50.03671 | 8.54715 | 345 ft | 7 kts | 159° |
| 2026-05-08 10:59 | 50.03670 | 8.54716 | 345 ft | 0 kts | 159° |
| 2026-05-08 11:01 | 50.03656 | 8.54725 | 352 ft | 5 kts | 156° |
| 2026-05-08 11:01 | 50.03606 | 8.54758 | 346 ft | 10 kts | 159° |
| 2026-05-08 11:01 | 50.03591 | 8.54841 | 344 ft | 0 kts | 69° |
| 2026-05-08 11:03 | 50.03599 | 8.54872 | 350 ft | 15 kts | 70° |
| 2026-05-08 11:03 | 50.03735 | 8.55440 | 347 ft | 92 kts | 69° |
| 2026-05-08 11:03 | 50.04028 | 8.56665 | 381 ft | 145 kts | 70° |
| 2026-05-08 11:03 | 50.04377 | 8.58138 | 1067 ft | 140 kts | 70° |
| 2026-05-08 11:04 | 50.04714 | 8.59563 | 1736 ft | 146 kts | 70° |
| 2026-05-08 11:04 | 50.05087 | 8.61149 | 2155 ft | 167 kts | 70° |
| 2026-05-08 11:04 | 50.05718 | 8.62786 | 2527 ft | 191 kts | 43° |
| 2026-05-08 11:04 | 50.06997 | 8.63638 | 2922 ft | 217 kts | 5° |
| 2026-05-08 11:05 | 50.08525 | 8.63553 | 3771 ft | 220 kts | 357° |
| 2026-05-08 11:05 | 50.10060 | 8.63430 | 4701 ft | 222 kts | 357° |
| 2026-05-08 11:05 | 50.11666 | 8.63309 | 5309 ft | 243 kts | 356° |
| 2026-05-08 11:05 | 50.13435 | 8.63183 | 5871 ft | 264 kts | 356° |
| 2026-05-08 11:06 | 50.14663 | 8.63098 | 6423 ft | 270 kts | 356° |
| 2026-05-08 11:06 | 50.16556 | 8.62970 | 7305 ft | 275 kts | 356° |
| 2026-05-08 11:06 | 50.18484 | 8.62842 | 8192 ft | 280 kts | 356° |
| 2026-05-08 11:06 | 50.20451 | 8.62712 | 9083 ft | 286 kts | 356° |
| 2026-05-08 11:07 | 50.22454 | 8.62578 | 9979 ft | 291 kts | 356° |
| 2026-05-08 11:07 | 50.24517 | 8.62434 | 10540 ft | 307 kts | 356° |
| 2026-05-08 11:07 | 50.26728 | 8.62278 | 10903 ft | 328 kts | 356° |
| 2026-05-08 11:07 | 50.29042 | 8.62121 | 11590 ft | 336 kts | 356° |
| 2026-05-08 11:08 | 50.31394 | 8.61964 | 12403 ft | 340 kts | 356° |
| 2026-05-08 11:08 | 50.33772 | 8.61826 | 13234 ft | 344 kts | 357° |
| 2026-05-08 11:08 | 50.36180 | 8.61777 | 14038 ft | 348 kts | 358° |
| 2026-05-08 11:08 | 50.38612 | 8.61786 | 14754 ft | 352 kts | 359° |
| 2026-05-08 11:09 | 50.41070 | 8.61819 | 15481 ft | 355 kts | 359° |
| 2026-05-08 11:09 | 50.43552 | 8.61854 | 16177 ft | 358 kts | 359° |
| 2026-05-08 11:09 | 50.46051 | 8.62090 | 16887 ft | 362 kts | 4° |
| 2026-05-08 11:09 | 50.48574 | 8.62460 | 17611 ft | 365 kts | 3° |
| 2026-05-08 11:10 | 50.51117 | 8.62820 | 18354 ft | 369 kts | 3° |
| 2026-05-08 11:10 | 50.53683 | 8.63178 | 18973 ft | 372 kts | 3° |
| 2026-05-08 11:10 | 50.56272 | 8.63538 | 19586 ft | 375 kts | 3° |
| 2026-05-08 11:10 | 50.58884 | 8.63904 | 20189 ft | 379 kts | 3° |
| 2026-05-08 11:11 | 50.61518 | 8.64275 | 20797 ft | 382 kts | 3° |
| 2026-05-08 11:11 | 50.64177 | 8.64653 | 21393 ft | 385 kts | 3° |
| 2026-05-08 11:11 | 50.66861 | 8.65032 | 21987 ft | 389 kts | 3° |
| 2026-05-08 11:11 | 50.69567 | 8.65409 | 22569 ft | 392 kts | 3° |
| 2026-05-08 11:12 | 50.72300 | 8.65790 | 23163 ft | 396 kts | 3° |
| 2026-05-08 11:12 | 50.75054 | 8.66179 | 23727 ft | 399 kts | 3° |
| 2026-05-08 11:12 | 50.77816 | 8.66819 | 24181 ft | 405 kts | 12° |
| 2026-05-08 11:12 | 50.80493 | 8.68291 | 24635 ft | 411 kts | 23° |
| 2026-05-08 11:13 | 50.82973 | 8.70586 | 25083 ft | 416 kts | 35° |
| 2026-05-08 11:13 | 50.85148 | 8.73646 | 25523 ft | 421 kts | 46° |
| 2026-05-08 11:13 | 50.86980 | 8.77292 | 25966 ft | 425 kts | 52° |
| 2026-05-08 11:13 | 50.88770 | 8.81039 | 26414 ft | 428 kts | 52° |
| 2026-05-08 11:14 | 50.90576 | 8.84812 | 26858 ft | 431 kts | 52° |
| 2026-05-08 11:14 | 50.92392 | 8.88611 | 27283 ft | 434 kts | 52° |
| 2026-05-08 11:14 | 50.94223 | 8.92445 | 27706 ft | 437 kts | 52° |
| 2026-05-08 11:14 | 50.96063 | 8.96302 | 28126 ft | 440 kts | 52° |
| 2026-05-08 11:15 | 50.97918 | 9.00190 | 28546 ft | 443 kts | 52° |
| 2026-05-08 11:15 | 50.99783 | 9.04109 | 28968 ft | 446 kts | 52° |
| 2026-05-08 11:15 | 51.01654 | 9.08053 | 29371 ft | 449 kts | 52° |
| 2026-05-08 11:15 | 51.03539 | 9.12035 | 29769 ft | 452 kts | 52° |
| 2026-05-08 11:16 | 51.05434 | 9.16043 | 30160 ft | 455 kts | 52° |
| 2026-05-08 11:16 | 51.07363 | 9.20044 | 30476 ft | 458 kts | 49° |
| 2026-05-08 11:16 | 51.09598 | 9.23653 | 30778 ft | 459 kts | 39° |
| 2026-05-08 11:16 | 51.12169 | 9.26659 | 31080 ft | 459 kts | 30° |
| 2026-05-08 11:17 | 51.15011 | 9.28978 | 31378 ft | 459 kts | 20° |
| 2026-05-08 11:17 | 51.18047 | 9.30552 | 31676 ft | 459 kts | 11° |
| 2026-05-08 11:17 | 51.21173 | 9.31629 | 32013 ft | 460 kts | 9° |
| 2026-05-08 11:17 | 51.24297 | 9.32705 | 32471 ft | 458 kts | 9° |
| 2026-05-08 11:18 | 51.27405 | 9.33786 | 32922 ft | 457 kts | 9° |
| 2026-05-08 11:18 | 51.30511 | 9.34873 | 33343 ft | 457 kts | 9° |
| 2026-05-08 11:18 | 51.33612 | 9.35959 | 33766 ft | 456 kts | 9° |
| 2026-05-08 11:18 | 51.36711 | 9.37037 | 34196 ft | 455 kts | 9° |
| 2026-05-08 11:19 | 51.39803 | 9.38112 | 34548 ft | 455 kts | 9° |
| 2026-05-08 11:19 | 51.42898 | 9.39189 | 34871 ft | 455 kts | 9° |
| 2026-05-08 11:19 | 51.45995 | 9.40269 | 35194 ft | 455 kts | 9° |
| 2026-05-08 11:19 | 51.49088 | 9.41351 | 35499 ft | 455 kts | 9° |
| 2026-05-08 11:20 | 51.52185 | 9.42437 | 35802 ft | 456 kts | 9° |
| 2026-05-08 11:20 | 51.55280 | 9.43523 | 36113 ft | 456 kts | 9° |
| 2026-05-08 11:20 | 51.58379 | 9.44611 | 36397 ft | 456 kts | 9° |
| 2026-05-08 11:20 | 51.61479 | 9.45701 | 36666 ft | 456 kts | 9° |
| 2026-05-08 11:21 | 51.64576 | 9.46791 | 36935 ft | 456 kts | 9° |
| 2026-05-08 11:21 | 51.67681 | 9.47889 | 37136 ft | 457 kts | 9° |
| 2026-05-08 11:21 | 51.70775 | 9.48983 | 37171 ft | 455 kts | 9° |
| 2026-05-08 11:22 | 51.76942 | 9.51168 | 37173 ft | 453 kts | 9° |
| 2026-05-08 11:22 | 51.83110 | 9.53180 | 37176 ft | 450 kts | 3° |
| 2026-05-08 11:23 | 51.89348 | 9.53471 | 37170 ft | 448 kts | 358° |
| 2026-05-08 11:23 | 51.95581 | 9.53615 | 37174 ft | 448 kts | 358° |
| 2026-05-08 11:24 | 52.01834 | 9.53779 | 37447 ft | 450 kts | 358° |
| 2026-05-08 11:24 | 52.04966 | 9.53856 | 37698 ft | 451 kts | 358° |
| 2026-05-08 11:24 | 52.08102 | 9.53933 | 37938 ft | 451 kts | 358° |
| 2026-05-08 11:24 | 52.11244 | 9.54012 | 38143 ft | 452 kts | 358° |
| 2026-05-08 11:25 | 52.14387 | 9.54088 | 38202 ft | 452 kts | 358° |
| 2026-05-08 11:25 | 52.20675 | 9.54236 | 38184 ft | 452 kts | 358° |
| 2026-05-08 11:26 | 52.26956 | 9.54392 | 38181 ft | 451 kts | 358° |
| 2026-05-08 11:26 | 52.33237 | 9.54555 | 38193 ft | 451 kts | 358° |
| 2026-05-08 11:27 | 52.39519 | 9.54715 | 38202 ft | 451 kts | 358° |
| 2026-05-08 11:27 | 52.45804 | 9.54866 | 38209 ft | 452 kts | 358° |
| 2026-05-08 11:28 | 52.52085 | 9.55007 | 38202 ft | 452 kts | 358° |
| 2026-05-08 11:28 | 52.58372 | 9.55173 | 38202 ft | 452 kts | 358° |
| 2026-05-08 11:29 | 52.64658 | 9.55337 | 38214 ft | 452 kts | 358° |
| 2026-05-08 11:29 | 52.70942 | 9.55497 | 38219 ft | 452 kts | 358° |
| 2026-05-08 11:30 | 52.77227 | 9.55660 | 38207 ft | 451 kts | 358° |
| 2026-05-08 11:30 | 52.83502 | 9.55814 | 38202 ft | 451 kts | 358° |
| 2026-05-08 11:31 | 52.89777 | 9.55971 | 38211 ft | 451 kts | 358° |
| 2026-05-08 11:31 | 52.96052 | 9.56144 | 38206 ft | 451 kts | 358° |
| 2026-05-08 11:32 | 53.02319 | 9.56306 | 38206 ft | 450 kts | 358° |
| 2026-05-08 11:32 | 53.08585 | 9.56458 | 38207 ft | 450 kts | 358° |
| 2026-05-08 11:33 | 53.14805 | 9.56631 | 38208 ft | 450 kts | 358° |
| 2026-05-08 11:33 | 53.21064 | 9.56794 | 38210 ft | 450 kts | 358° |
| 2026-05-08 11:34 | 53.27326 | 9.56958 | 38205 ft | 450 kts | 358° |
| 2026-05-08 11:34 | 53.30460 | 9.57035 | 38018 ft | 450 kts | 358° |
| 2026-05-08 11:34 | 53.33630 | 9.57113 | 37742 ft | 449 kts | 358° |
| 2026-05-08 11:34 | 53.36753 | 9.57191 | 37484 ft | 449 kts | 358° |
| 2026-05-08 11:35 | 53.39874 | 9.57274 | 36924 ft | 450 kts | 358° |
| 2026-05-08 11:35 | 53.42971 | 9.57358 | 36140 ft | 452 kts | 358° |
| 2026-05-08 11:35 | 53.46172 | 9.57447 | 35326 ft | 456 kts | 358° |
| 2026-05-08 11:35 | 53.49297 | 9.57532 | 34775 ft | 453 kts | 358° |
| 2026-05-08 11:36 | 53.52434 | 9.57620 | 34242 ft | 449 kts | 358° |
| 2026-05-08 11:36 | 53.55547 | 9.57706 | 33634 ft | 445 kts | 358° |
| 2026-05-08 11:36 | 53.58620 | 9.57789 | 33109 ft | 439 kts | 358° |
| 2026-05-08 11:36 | 53.61660 | 9.57868 | 32589 ft | 434 kts | 358° |
| 2026-05-08 11:37 | 53.64664 | 9.57917 | 32046 ft | 429 kts | 355° |
| 2026-05-08 11:37 | 53.67601 | 9.57427 | 31538 ft | 421 kts | 349° |
| 2026-05-08 11:37 | 53.70488 | 9.56742 | 31039 ft | 417 kts | 349° |
| 2026-05-08 11:37 | 53.73345 | 9.56072 | 30545 ft | 413 kts | 349° |
| 2026-05-08 11:38 | 53.76177 | 9.55412 | 30018 ft | 409 kts | 349° |
| 2026-05-08 11:38 | 53.78976 | 9.54762 | 29537 ft | 403 kts | 349° |
| 2026-05-08 11:38 | 53.81732 | 9.54122 | 29080 ft | 397 kts | 349° |
| 2026-05-08 11:38 | 53.84453 | 9.53488 | 28627 ft | 392 kts | 349° |
| 2026-05-08 11:39 | 53.87142 | 9.52861 | 28208 ft | 388 kts | 349° |
| 2026-05-08 11:39 | 53.89801 | 9.52239 | 27764 ft | 384 kts | 349° |
| 2026-05-08 11:39 | 53.92436 | 9.51621 | 27346 ft | 381 kts | 349° |
| 2026-05-08 11:39 | 53.95054 | 9.51008 | 26940 ft | 378 kts | 349° |
| 2026-05-08 11:40 | 53.97644 | 9.50402 | 26533 ft | 374 kts | 349° |
| 2026-05-08 11:40 | 54.00160 | 9.49434 | 26125 ft | 368 kts | 339° |
| 2026-05-08 11:40 | 54.02496 | 9.47749 | 25723 ft | 362 kts | 329° |
| 2026-05-08 11:40 | 54.04664 | 9.45616 | 25303 ft | 358 kts | 327° |
| 2026-05-08 11:41 | 54.06810 | 9.43491 | 24892 ft | 355 kts | 327° |
| 2026-05-08 11:41 | 54.08941 | 9.41396 | 24480 ft | 353 kts | 328° |
| 2026-05-08 11:41 | 54.11061 | 9.39317 | 24051 ft | 350 kts | 328° |
| 2026-05-08 11:41 | 54.13166 | 9.37244 | 23598 ft | 348 kts | 327° |
| 2026-05-08 11:42 | 54.15254 | 9.35179 | 23141 ft | 345 kts | 327° |
| 2026-05-08 11:42 | 54.17321 | 9.33130 | 22713 ft | 342 kts | 328° |
| 2026-05-08 11:42 | 54.19367 | 9.31098 | 22296 ft | 339 kts | 327° |
| 2026-05-08 11:42 | 54.21399 | 9.29082 | 21880 ft | 336 kts | 328° |
| 2026-05-08 11:43 | 54.23417 | 9.27080 | 21466 ft | 334 kts | 328° |
| 2026-05-08 11:43 | 54.25422 | 9.25089 | 21058 ft | 332 kts | 328° |
| 2026-05-08 11:43 | 54.27417 | 9.23106 | 20651 ft | 331 kts | 327° |
| 2026-05-08 11:43 | 54.29401 | 9.21132 | 20249 ft | 329 kts | 327° |
| 2026-05-08 11:44 | 54.31376 | 9.19163 | 19851 ft | 328 kts | 328° |
| 2026-05-08 11:44 | 54.33341 | 9.17201 | 19450 ft | 327 kts | 328° |
| 2026-05-08 11:44 | 54.35303 | 9.15242 | 19062 ft | 326 kts | 328° |
| 2026-05-08 11:44 | 54.37181 | 9.13090 | 18663 ft | 324 kts | 319° |
| 2026-05-08 11:45 | 54.38799 | 9.10433 | 18243 ft | 322 kts | 313° |
| 2026-05-08 11:45 | 54.40367 | 9.07699 | 17838 ft | 321 kts | 313° |
| 2026-05-08 11:45 | 54.41932 | 9.04983 | 17458 ft | 319 kts | 313° |
| 2026-05-08 11:45 | 54.43488 | 9.02288 | 17075 ft | 317 kts | 313° |
| 2026-05-08 11:46 | 54.45038 | 8.99602 | 16699 ft | 316 kts | 312° |
| 2026-05-08 11:46 | 54.46582 | 8.96928 | 16318 ft | 315 kts | 312° |
| 2026-05-08 11:46 | 54.48118 | 8.94261 | 15938 ft | 313 kts | 313° |
| 2026-05-08 11:46 | 54.49650 | 8.91597 | 15575 ft | 313 kts | 312° |
| 2026-05-08 11:47 | 54.51174 | 8.88935 | 15203 ft | 312 kts | 313° |
| 2026-05-08 11:47 | 54.52696 | 8.86274 | 14834 ft | 312 kts | 313° |
| 2026-05-08 11:47 | 54.54216 | 8.83615 | 14466 ft | 311 kts | 313° |
| 2026-05-08 11:47 | 54.55732 | 8.80957 | 14096 ft | 311 kts | 313° |
| 2026-05-08 11:48 | 54.57250 | 8.78299 | 13691 ft | 311 kts | 313° |
| 2026-05-08 11:48 | 54.58272 | 8.76510 | 13430 ft | 310 kts | 313° |
| 2026-05-08 11:48 | 54.59776 | 8.73871 | 13056 ft | 307 kts | 313° |
| 2026-05-08 11:48 | 54.61271 | 8.71245 | 12683 ft | 306 kts | 313° |
| 2026-05-08 11:49 | 54.62642 | 8.68464 | 12300 ft | 304 kts | 307° |
| 2026-05-08 11:49 | 54.63944 | 8.65601 | 11918 ft | 302 kts | 307° |
| 2026-05-08 11:49 | 54.65242 | 8.62753 | 11539 ft | 302 kts | 307° |
| 2026-05-08 11:49 | 54.66540 | 8.59911 | 11150 ft | 301 kts | 307° |
| 2026-05-08 11:50 | 54.67829 | 8.57088 | 10809 ft | 298 kts | 307° |
| 2026-05-08 11:50 | 54.69112 | 8.54268 | 10435 ft | 297 kts | 307° |
| 2026-05-08 11:50 | 54.70387 | 8.51457 | 10055 ft | 296 kts | 307° |
| 2026-05-08 11:50 | 54.71657 | 8.48659 | 9623 ft | 296 kts | 307° |
| 2026-05-08 11:51 | 54.72924 | 8.45869 | 9198 ft | 295 kts | 308° |
| 2026-05-08 11:51 | 54.74181 | 8.43094 | 8780 ft | 294 kts | 308° |
| 2026-05-08 11:51 | 54.75433 | 8.40327 | 8364 ft | 292 kts | 308° |
| 2026-05-08 11:51 | 54.76679 | 8.37572 | 7954 ft | 290 kts | 308° |
| 2026-05-08 11:52 | 54.77918 | 8.34828 | 7544 ft | 288 kts | 308° |
| 2026-05-08 11:52 | 54.79153 | 8.32093 | 7138 ft | 287 kts | 309° |
| 2026-05-08 11:52 | 54.80558 | 8.29665 | 6712 ft | 284 kts | 323° |
| 2026-05-08 11:52 | 54.82164 | 8.27659 | 6287 ft | 283 kts | 326° |
| 2026-05-08 11:53 | 54.83769 | 8.25679 | 5817 ft | 282 kts | 326° |
| 2026-05-08 11:53 | 54.85355 | 8.23713 | 5400 ft | 280 kts | 326° |
| 2026-05-08 11:53 | 54.86934 | 8.21752 | 4950 ft | 279 kts | 326° |
| 2026-05-08 11:53 | 54.88508 | 8.19799 | 4486 ft | 277 kts | 326° |
| 2026-05-08 11:54 | 54.90074 | 8.17856 | 4047 ft | 276 kts | 326° |
| 2026-05-08 11:54 | 54.91613 | 8.15938 | 3818 ft | 266 kts | 325° |
| 2026-05-08 11:54 | 54.93099 | 8.14077 | 3477 ft | 262 kts | 325° |
| 2026-05-08 11:54 | 54.94551 | 8.12259 | 3287 ft | 252 kts | 325° |
| 2026-05-08 11:55 | 54.95938 | 8.10526 | 3164 ft | 241 kts | 326° |
| 2026-05-08 11:55 | 54.97415 | 8.09384 | 3041 ft | 227 kts | 356° |
| 2026-05-08 11:55 | 54.98915 | 8.09799 | 3009 ft | 218 kts | 30° |
| 2026-05-08 11:55 | 55.00032 | 8.11485 | 3012 ft | 213 kts | 57° |
| 2026-05-08 11:56 | 55.00901 | 8.13593 | 3001 ft | 216 kts | 57° |
| 2026-05-08 11:56 | 55.01782 | 8.15755 | 2606 ft | 220 kts | 59° |
| 2026-05-08 11:56 | 55.02251 | 8.18222 | 2222 ft | 216 kts | 92° |
| 2026-05-08 11:56 | 55.01826 | 8.20632 | 2037 ft | 206 kts | 126° |
| 2026-05-08 11:57 | 55.00797 | 8.22264 | 1884 ft | 197 kts | 144° |
| 2026-05-08 11:57 | 54.99698 | 8.23624 | 1762 ft | 188 kts | 144° |
| 2026-05-08 11:57 | 54.98667 | 8.24901 | 1598 ft | 175 kts | 143° |
| 2026-05-08 11:57 | 54.97733 | 8.26060 | 1475 ft | 153 kts | 143° |
| 2026-05-08 11:58 | 54.96914 | 8.27076 | 1262 ft | 138 kts | 143° |
| 2026-05-08 11:58 | 54.96148 | 8.28030 | 1076 ft | 133 kts | 144° |
| 2026-05-08 11:58 | 54.95403 | 8.28959 | 897 ft | 131 kts | 144° |
| 2026-05-08 11:59 | 54.93916 | 8.30828 | 533 ft | 132 kts | 146° |
| 2026-05-08 11:59 | 54.93164 | 8.31759 | 356 ft | 133 kts | 147° |
| 2026-05-08 11:59 | 54.92410 | 8.32696 | 177 ft | 133 kts | 147° |
| 2026-05-08 11:59 | 54.91662 | 8.33631 | 47 ft | 127 kts | 147° |
| 2026-05-08 12:00 | 54.90992 | 8.34455 | 41 ft | 93 kts | 144° |
| 2026-05-08 12:00 | 54.90709 | 8.34808 | 35 ft | 22 kts | 145° |
| 2026-05-08 12:00 | 54.90589 | 8.34919 | 38 ft | 14 kts | 201° |
| 2026-05-08 12:00 | 54.90513 | 8.34803 | 36 ft | 15 kts | 222° |
| 2026-05-08 12:01 | 54.90428 | 8.34669 | 36 ft | 17 kts | 222° |
| 2026-05-08 12:01 | 54.90337 | 8.34524 | 34 ft | 19 kts | 225° |
| 2026-05-08 12:01 | 54.90261 | 8.34321 | 31 ft | 21 kts | 247° |
| 2026-05-08 12:01 | 54.90235 | 8.34063 | 29 ft | 22 kts | 270° |
| 2026-05-08 12:02 | 54.90255 | 8.33798 | 29 ft | 22 kts | 278° |
| 2026-05-08 12:02 | 54.90301 | 8.33545 | 29 ft | 22 kts | 300° |
| 2026-05-08 12:02 | 54.90404 | 8.33357 | 30 ft | 21 kts | 328° |
| 2026-05-08 12:02 | 54.90535 | 8.33253 | 31 ft | 21 kts | 347° |
| 2026-05-08 12:03 | 54.90674 | 8.33231 | 34 ft | 20 kts | 356° |
| 2026-05-08 12:03 | 54.90811 | 8.33211 | 32 ft | 21 kts | 349° |
| 2026-05-08 12:03 | 54.90950 | 8.33107 | 27 ft | 15 kts | 338° |
| 2026-05-08 12:03 | 54.91049 | 8.33172 | 24 ft | 17 kts | 17° |
| 2026-05-08 12:04 | 54.91164 | 8.33179 | 28 ft | 15 kts | 360° |
| 2026-05-08 12:04 | 54.91269 | 8.33185 | 28 ft | 16 kts | 14° |
| 2026-05-08 12:04 | 54.91347 | 8.33206 | 28 ft | 10 kts | 311° |
| 2026-05-08 12:04 | 54.91351 | 8.33143 | 28 ft | 0 kts | 271° |
| 2026-05-08 12:05 | 54.91351 | 8.33133 | 28 ft | 1 kts | 270° |
| 2026-05-08 12:05 | 54.91351 | 8.33117 | 28 ft | 0 kts | 270° |